sensor_id;sensor_type;location;lat;lon;timestamp;pressure;altitude;pressure_sealevel;temperature;humidity
11395;BME280;5753;54.402;10.220;2023-02-16T00:00:50;102168.38;;;11.79;65.18
11395;BME280;5753;54.402;10.220;2023-02-16T00:03:21;102170.50;;;12.19;64.11
11395;BME280;5753;54.402;10.220;2023-02-16T00:05:48;102178.38;;;11.70;64.45
11395;BME280;5753;54.402;10.220;2023-02-16T00:08:15;102171.88;;;11.30;65.26
11395;BME280;5753;54.402;10.220;2023-02-16T00:10:41;102177.16;;;10.85;68.54
11395;BME280;5753;54.402;10.220;2023-02-16T00:13:28;102171.47;;;11.18;66.82
11395;BME280;5753;54.402;10.220;2023-02-16T00:16:18;102173.47;;;11.26;65.62
11395;BME280;5753;54.402;10.220;2023-02-16T00:18:45;102161.38;;;11.00;67.83
11395;BME280;5753;54.402;10.220;2023-02-16T00:21:12;102159.94;;;11.59;65.33
11395;BME280;5753;54.402;10.220;2023-02-16T00:23:38;102167.22;;;12.53;62.02
11395;BME280;5753;54.402;10.220;2023-02-16T00:26:05;102163.63;;;12.48;61.43
11395;BME280;5753;54.402;10.220;2023-02-16T00:28:38;102156.75;;;10.67;66.40
11395;BME280;5753;54.402;10.220;2023-02-16T00:31:04;102150.72;;;11.40;66.60
11395;BME280;5753;54.402;10.220;2023-02-16T00:33:30;102141.94;;;12.14;64.62
11395;BME280;5753;54.402;10.220;2023-02-16T00:35:56;102149.00;;;11.91;64.26
11395;BME280;5753;54.402;10.220;2023-02-16T00:38:22;102149.72;;;11.11;68.60
11395;BME280;5753;54.402;10.220;2023-02-16T00:40:48;102146.94;;;11.30;66.54
11395;BME280;5753;54.402;10.220;2023-02-16T00:43:26;102143.81;;;11.91;65.22
11395;BME280;5753;54.402;10.220;2023-02-16T00:45:54;102139.16;;;11.29;67.05
11395;BME280;5753;54.402;10.220;2023-02-16T00:48:22;102152.34;;;11.63;65.98
11395;BME280;5753;54.402;10.220;2023-02-16T00:50:48;102144.34;;;11.05;68.99
11395;BME280;5753;54.402;10.220;2023-02-16T00:53:15;102142.94;;;12.19;63.86
11395;BME280;5753;54.402;10.220;2023-02-16T00:55:42;102132.09;;;12.03;63.37
11395;BME280;5753;54.402;10.220;2023-02-16T00:58:27;102139.50;;;11.65;65.24
11395;BME280;5753;54.402;10.220;2023-02-16T01:01:05;102127.56;;;10.68;69.12
11395;BME280;5753;54.402;10.220;2023-02-16T01:03:33;102124.19;;;11.96;64.87
11395;BME280;5753;54.402;10.220;2023-02-16T01:05:59;102139.03;;;11.00;66.82
11395;BME280;5753;54.402;10.220;2023-02-16T01:08:44;102109.81;;;12.06;64.59
11395;BME280;5753;54.402;10.220;2023-02-16T01:11:29;102103.94;;;12.40;61.28
11395;BME280;5753;54.402;10.220;2023-02-16T01:13:56;102106.97;;;12.27;62.16
11395;BME280;5753;54.402;10.220;2023-02-16T01:16:26;102104.06;;;11.86;63.95
11395;BME280;5753;54.402;10.220;2023-02-16T01:18:53;102111.28;;;12.26;62.25
11395;BME280;5753;54.402;10.220;2023-02-16T01:21:19;102114.69;;;11.43;66.69
11395;BME280;5753;54.402;10.220;2023-02-16T01:23:49;102118.56;;;12.70;60.59
11395;BME280;5753;54.402;10.220;2023-02-16T01:26:17;102130.66;;;12.71;60.45
11395;BME280;5753;54.402;10.220;2023-02-16T01:28:44;102119.81;;;11.68;62.09
11395;BME280;5753;54.402;10.220;2023-02-16T01:31:12;102122.34;;;11.67;63.54
11395;BME280;5753;54.402;10.220;2023-02-16T01:33:40;102111.97;;;11.65;63.87
11395;BME280;5753;54.402;10.220;2023-02-16T01:36:21;102118.19;;;11.97;62.91
11395;BME280;5753;54.402;10.220;2023-02-16T01:38:48;102121.75;;;11.49;62.67
11395;BME280;5753;54.402;10.220;2023-02-16T01:44:24;102118.63;;;12.73;60.81
11395;BME280;5753;54.402;10.220;2023-02-16T01:49:39;102113.03;;;12.57;59.80
11395;BME280;5753;54.402;10.220;2023-02-16T01:52:25;102118.44;;;12.35;59.18
11395;BME280;5753;54.402;10.220;2023-02-16T01:55:17;102109.47;;;12.52;60.92
11395;BME280;5753;54.402;10.220;2023-02-16T01:57:46;102106.69;;;10.86;65.93
11395;BME280;5753;54.402;10.220;2023-02-16T02:00:28;102110.13;;;10.61;67.27
11395;BME280;5753;54.402;10.220;2023-02-16T02:02:58;102107.09;;;11.22;67.06
11395;BME280;5753;54.402;10.220;2023-02-16T02:05:47;102109.94;;;11.30;65.87
11395;BME280;5753;54.402;10.220;2023-02-16T02:08:31;102108.25;;;11.05;66.46
11395;BME280;5753;54.402;10.220;2023-02-16T02:11:17;102103.88;;;11.29;65.62
11395;BME280;5753;54.402;10.220;2023-02-16T02:16:22;102100.19;;;11.47;64.85
11395;BME280;5753;54.402;10.220;2023-02-16T02:18:49;102109.75;;;10.28;68.53
11395;BME280;5753;54.402;10.220;2023-02-16T02:27:34;102107.53;;;11.61;64.23
11395;BME280;5753;54.402;10.220;2023-02-16T02:30:24;102103.13;;;12.13;62.36
11395;BME280;5753;54.402;10.220;2023-02-16T02:33:01;102096.78;;;10.97;65.53
11395;BME280;5753;54.402;10.220;2023-02-16T02:38:42;102101.84;;;11.45;63.39
11395;BME280;5753;54.402;10.220;2023-02-16T02:44:38;102120.63;;;11.15;66.22
11395;BME280;5753;54.402;10.220;2023-02-16T02:47:07;102106.69;;;11.10;64.65
11395;BME280;5753;54.402;10.220;2023-02-16T02:49:33;102111.28;;;11.19;65.24
11395;BME280;5753;54.402;10.220;2023-02-16T02:52:00;102102.69;;;12.27;59.97
11395;BME280;5753;54.402;10.220;2023-02-16T02:54:36;102114.59;;;11.67;62.50
11395;BME280;5753;54.402;10.220;2023-02-16T03:08:24;102082.22;;;10.99;63.44
11395;BME280;5753;54.402;10.220;2023-02-16T03:10:58;102082.09;;;10.70;65.90
11395;BME280;5753;54.402;10.220;2023-02-16T03:16:45;102065.00;;;12.06;60.24
11395;BME280;5753;54.402;10.220;2023-02-16T03:19:15;102080.59;;;11.01;63.70
11395;BME280;5753;54.402;10.220;2023-02-16T03:22:01;102064.31;;;11.56;62.09
11395;BME280;5753;54.402;10.220;2023-02-16T03:24:46;102067.16;;;10.38;64.16
11395;BME280;5753;54.402;10.220;2023-02-16T03:27:39;102066.94;;;10.32;67.82
11395;BME280;5753;54.402;10.220;2023-02-16T03:30:25;102064.09;;;10.02;67.38
11395;BME280;5753;54.402;10.220;2023-02-16T03:32:53;102054.81;;;11.82;61.70
11395;BME280;5753;54.402;10.220;2023-02-16T03:35:19;102063.50;;;10.31;65.91
11395;BME280;5753;54.402;10.220;2023-02-16T03:37:46;102065.78;;;10.24;68.00
11395;BME280;5753;54.402;10.220;2023-02-16T03:40:14;102060.44;;;11.97;60.65
11395;BME280;5753;54.402;10.220;2023-02-16T03:43:07;102057.50;;;11.06;64.13
11395;BME280;5753;54.402;10.220;2023-02-16T03:45:37;102050.84;;;11.38;63.56
11395;BME280;5753;54.402;10.220;2023-02-16T03:48:05;102052.25;;;11.29;63.11
11395;BME280;5753;54.402;10.220;2023-02-16T03:50:31;102049.97;;;10.86;63.95
11395;BME280;5753;54.402;10.220;2023-02-16T03:52:57;102054.91;;;11.58;61.40
11395;BME280;5753;54.402;10.220;2023-02-16T03:55:43;102050.81;;;10.37;66.13
11395;BME280;5753;54.402;10.220;2023-02-16T03:58:13;102046.22;;;11.02;65.58
11395;BME280;5753;54.402;10.220;2023-02-16T04:00:40;102038.47;;;12.41;59.25
11395;BME280;5753;54.402;10.220;2023-02-16T04:03:07;102042.97;;;11.61;61.09
11395;BME280;5753;54.402;10.220;2023-02-16T04:05:36;102046.72;;;11.17;62.77
11395;BME280;5753;54.402;10.220;2023-02-16T04:08:04;102047.19;;;11.06;62.76
11395;BME280;5753;54.402;10.220;2023-02-16T04:10:30;102043.88;;;11.10;63.96
11395;BME280;5753;54.402;10.220;2023-02-16T04:12:57;102033.19;;;11.24;63.34
11395;BME280;5753;54.402;10.220;2023-02-16T04:15:25;102040.78;;;11.20;62.85
11395;BME280;5753;54.402;10.220;2023-02-16T04:17:52;102050.78;;;9.91;67.75
11395;BME280;5753;54.402;10.220;2023-02-16T04:20:22;102035.56;;;10.42;66.06
11395;BME280;5753;54.402;10.220;2023-02-16T04:22:48;102036.69;;;11.80;61.90
11395;BME280;5753;54.402;10.220;2023-02-16T04:25:15;102027.72;;;11.69;60.00
11395;BME280;5753;54.402;10.220;2023-02-16T04:27:43;102036.09;;;10.83;65.34
11395;BME280;5753;54.402;10.220;2023-02-16T04:30:12;102024.97;;;11.91;61.67
11395;BME280;5753;54.402;10.220;2023-02-16T04:32:40;102030.78;;;10.78;62.98
11395;BME280;5753;54.402;10.220;2023-02-16T04:35:06;102029.28;;;11.64;61.24
11395;BME280;5753;54.402;10.220;2023-02-16T04:37:33;102030.28;;;11.41;60.91
11395;BME280;5753;54.402;10.220;2023-02-16T04:39:59;102021.38;;;11.86;60.71
11395;BME280;5753;54.402;10.220;2023-02-16T04:42:25;102032.97;;;11.72;59.28
11395;BME280;5753;54.402;10.220;2023-02-16T04:44:52;102018.56;;;11.79;60.18
11395;BME280;5753;54.402;10.220;2023-02-16T04:47:18;102010.56;;;12.00;59.07
11395;BME280;5753;54.402;10.220;2023-02-16T04:49:45;102010.09;;;11.83;59.17
11395;BME280;5753;54.402;10.220;2023-02-16T04:52:14;102012.34;;;11.18;62.21
11395;BME280;5753;54.402;10.220;2023-02-16T04:54:40;102025.84;;;11.37;60.67
11395;BME280;5753;54.402;10.220;2023-02-16T04:57:08;102029.03;;;10.05;64.94
11395;BME280;5753;54.402;10.220;2023-02-16T04:59:35;102030.50;;;11.21;62.88
11395;BME280;5753;54.402;10.220;2023-02-16T05:02:02;102026.88;;;10.89;62.75
11395;BME280;5753;54.402;10.220;2023-02-16T05:04:29;102018.25;;;10.63;63.02
11395;BME280;5753;54.402;10.220;2023-02-16T05:06:55;102023.53;;;10.92;62.69
11395;BME280;5753;54.402;10.220;2023-02-16T05:09:21;102024.81;;;11.04;62.85
11395;BME280;5753;54.402;10.220;2023-02-16T05:11:47;102023.34;;;10.38;64.73
11395;BME280;5753;54.402;10.220;2023-02-16T05:14:34;102029.00;;;11.01;62.40
11395;BME280;5753;54.402;10.220;2023-02-16T05:17:22;102026.16;;;11.20;61.58
11395;BME280;5753;54.402;10.220;2023-02-16T05:19:54;102030.63;;;10.73;62.33
11395;BME280;5753;54.402;10.220;2023-02-16T05:22:20;102024.06;;;10.83;62.53
11395;BME280;5753;54.402;10.220;2023-02-16T05:24:47;102017.31;;;10.37;64.63
11395;BME280;5753;54.402;10.220;2023-02-16T05:27:19;102030.56;;;11.23;61.85
11395;BME280;5753;54.402;10.220;2023-02-16T05:29:45;102036.19;;;10.36;66.25
11395;BME280;5753;54.402;10.220;2023-02-16T05:32:12;102044.31;;;10.47;64.12
11395;BME280;5753;54.402;10.220;2023-02-16T05:34:38;102044.72;;;11.09;62.50
11395;BME280;5753;54.402;10.220;2023-02-16T05:37:05;102042.22;;;10.61;64.34
11395;BME280;5753;54.402;10.220;2023-02-16T05:39:31;102036.03;;;9.87;68.42
11395;BME280;5753;54.402;10.220;2023-02-16T05:41:57;102032.47;;;10.28;67.14
11395;BME280;5753;54.402;10.220;2023-02-16T05:44:23;102024.22;;;9.92;69.22
11395;BME280;5753;54.402;10.220;2023-02-16T05:46:49;102024.63;;;10.75;65.11
11395;BME280;5753;54.402;10.220;2023-02-16T05:49:16;102031.22;;;10.41;65.71
11395;BME280;5753;54.402;10.220;2023-02-16T05:51:43;102030.09;;;10.58;65.36
11395;BME280;5753;54.402;10.220;2023-02-16T05:54:09;102031.09;;;10.16;67.29
11395;BME280;5753;54.402;10.220;2023-02-16T05:56:45;102028.41;;;11.10;64.04
11395;BME280;5753;54.402;10.220;2023-02-16T05:59:12;102034.88;;;10.97;63.33
11395;BME280;5753;54.402;10.220;2023-02-16T06:01:38;102042.56;;;11.48;62.64
11395;BME280;5753;54.402;10.220;2023-02-16T06:04:10;102030.22;;;10.61;64.00
11395;BME280;5753;54.402;10.220;2023-02-16T06:06:38;102033.53;;;11.08;63.51
11395;BME280;5753;54.402;10.220;2023-02-16T06:09:06;102028.66;;;11.73;61.58
11395;BME280;5753;54.402;10.220;2023-02-16T06:11:33;102026.25;;;10.23;66.12
11395;BME280;5753;54.402;10.220;2023-02-16T06:14:04;102034.94;;;10.75;64.08
11395;BME280;5753;54.402;10.220;2023-02-16T06:16:31;102034.22;;;10.79;62.83
11395;BME280;5753;54.402;10.220;2023-02-16T06:18:58;102027.63;;;10.61;64.43
11395;BME280;5753;54.402;10.220;2023-02-16T06:21:26;102027.78;;;11.44;62.75
11395;BME280;5753;54.402;10.220;2023-02-16T06:23:53;102029.38;;;11.13;63.05
11395;BME280;5753;54.402;10.220;2023-02-16T06:26:19;102019.44;;;11.79;59.74
11395;BME280;5753;54.402;10.220;2023-02-16T06:28:46;102019.53;;;12.42;58.53
11395;BME280;5753;54.402;10.220;2023-02-16T06:31:12;102017.78;;;11.27;60.33
11395;BME280;5753;54.402;10.220;2023-02-16T06:33:38;102013.25;;;11.20;62.82
11395;BME280;5753;54.402;10.220;2023-02-16T06:36:05;102023.75;;;10.74;63.68
11395;BME280;5753;54.402;10.220;2023-02-16T06:38:31;102026.56;;;11.06;63.09
11395;BME280;5753;54.402;10.220;2023-02-16T06:40:58;102028.03;;;11.24;61.82
11395;BME280;5753;54.402;10.220;2023-02-16T06:43:24;102020.91;;;11.17;62.19
11395;BME280;5753;54.402;10.220;2023-02-16T06:45:51;102029.81;;;10.27;64.60
11395;BME280;5753;54.402;10.220;2023-02-16T06:48:17;102028.59;;;10.89;63.39
11395;BME280;5753;54.402;10.220;2023-02-16T06:50:43;102027.59;;;11.38;62.66
11395;BME280;5753;54.402;10.220;2023-02-16T06:53:09;102022.69;;;11.45;60.79
11395;BME280;5753;54.402;10.220;2023-02-16T06:55:36;102006.94;;;12.54;59.40
11395;BME280;5753;54.402;10.220;2023-02-16T06:58:03;102018.38;;;10.92;62.77
11395;BME280;5753;54.402;10.220;2023-02-16T07:00:29;102010.97;;;11.02;63.08
11395;BME280;5753;54.402;10.220;2023-02-16T07:02:56;102016.91;;;11.54;61.73
11395;BME280;5753;54.402;10.220;2023-02-16T07:05:22;102019.63;;;11.04;64.09
11395;BME280;5753;54.402;10.220;2023-02-16T07:07:49;102020.50;;;11.32;62.28
11395;BME280;5753;54.402;10.220;2023-02-16T07:10:15;102027.84;;;9.75;67.33
11395;BME280;5753;54.402;10.220;2023-02-16T07:12:41;102019.03;;;11.94;61.37
11395;BME280;5753;54.402;10.220;2023-02-16T07:15:08;102020.75;;;10.87;63.89
11395;BME280;5753;54.402;10.220;2023-02-16T07:17:34;102032.41;;;11.00;64.32
11395;BME280;5753;54.402;10.220;2023-02-16T07:20:01;102018.13;;;10.86;64.30
11395;BME280;5753;54.402;10.220;2023-02-16T07:22:27;102019.59;;;11.57;62.49
11395;BME280;5753;54.402;10.220;2023-02-16T07:24:54;102012.25;;;11.97;60.56
11395;BME280;5753;54.402;10.220;2023-02-16T07:27:24;102020.13;;;11.47;62.44
11395;BME280;5753;54.402;10.220;2023-02-16T07:29:51;102015.06;;;11.50;62.56
11395;BME280;5753;54.402;10.220;2023-02-16T07:32:17;102017.69;;;11.78;61.21
11395;BME280;5753;54.402;10.220;2023-02-16T07:34:43;102018.84;;;12.81;58.37
11395;BME280;5753;54.402;10.220;2023-02-16T07:37:10;102002.94;;;13.35;56.22
11395;BME280;5753;54.402;10.220;2023-02-16T07:39:37;101998.94;;;13.14;56.46
11395;BME280;5753;54.402;10.220;2023-02-16T07:42:03;102000.34;;;13.00;56.65
11395;BME280;5753;54.402;10.220;2023-02-16T07:44:30;102008.88;;;12.30;57.76
11395;BME280;5753;54.402;10.220;2023-02-16T07:46:56;102006.88;;;12.21;59.27
11395;BME280;5753;54.402;10.220;2023-02-16T07:49:22;102009.22;;;11.28;61.65
11395;BME280;5753;54.402;10.220;2023-02-16T07:51:48;102010.41;;;12.88;57.78
11395;BME280;5753;54.402;10.220;2023-02-16T07:54:15;102021.69;;;11.15;61.12
11395;BME280;5753;54.402;10.220;2023-02-16T07:56:41;102031.63;;;12.43;58.92
11395;BME280;5753;54.402;10.220;2023-02-16T07:59:07;102019.50;;;11.82;60.24
11395;BME280;5753;54.402;10.220;2023-02-16T08:01:33;102025.47;;;12.38;59.98
11395;BME280;5753;54.402;10.220;2023-02-16T08:04:00;102026.41;;;11.55;61.89
11395;BME280;5753;54.402;10.220;2023-02-16T08:06:26;102021.28;;;11.02;64.96
11395;BME280;5753;54.402;10.220;2023-02-16T08:08:52;102017.88;;;11.30;63.21
11395;BME280;5753;54.402;10.220;2023-02-16T08:11:23;102014.63;;;10.84;65.65
11395;BME280;5753;54.402;10.220;2023-02-16T08:13:51;102009.81;;;11.20;63.23
11395;BME280;5753;54.402;10.220;2023-02-16T08:16:19;102011.84;;;11.30;63.79
11395;BME280;5753;54.402;10.220;2023-02-16T08:18:46;102025.06;;;11.94;61.79
11395;BME280;5753;54.402;10.220;2023-02-16T08:21:15;102017.69;;;11.24;63.65
11395;BME280;5753;54.402;10.220;2023-02-16T08:23:47;102021.91;;;11.48;63.42
11395;BME280;5753;54.402;10.220;2023-02-16T08:26:18;102020.00;;;10.64;65.84
11395;BME280;5753;54.402;10.220;2023-02-16T08:28:46;102027.41;;;10.55;65.45
11395;BME280;5753;54.402;10.220;2023-02-16T08:31:26;102023.28;;;10.60;67.12
11395;BME280;5753;54.402;10.220;2023-02-16T08:33:55;102025.34;;;11.21;63.53
11395;BME280;5753;54.402;10.220;2023-02-16T08:36:23;102025.03;;;11.12;64.91
11395;BME280;5753;54.402;10.220;2023-02-16T08:38:51;102029.19;;;11.07;64.79
11395;BME280;5753;54.402;10.220;2023-02-16T08:41:20;102022.69;;;10.67;65.09
11395;BME280;5753;54.402;10.220;2023-02-16T08:43:47;102023.59;;;11.47;64.43
11395;BME280;5753;54.402;10.220;2023-02-16T08:46:14;102037.94;;;11.38;63.54
11395;BME280;5753;54.402;10.220;2023-02-16T08:48:41;102032.13;;;11.73;62.82
11395;BME280;5753;54.402;10.220;2023-02-16T08:51:16;102016.22;;;11.86;62.36
11395;BME280;5753;54.402;10.220;2023-02-16T08:53:44;102025.81;;;11.63;62.76
11395;BME280;5753;54.402;10.220;2023-02-16T08:56:12;102034.34;;;11.07;66.00
11395;BME280;5753;54.402;10.220;2023-02-16T08:58:39;102023.84;;;12.42;61.81
11395;BME280;5753;54.402;10.220;2023-02-16T09:01:09;102024.91;;;11.61;63.67
11395;BME280;5753;54.402;10.220;2023-02-16T09:03:36;102022.75;;;12.34;60.76
11395;BME280;5753;54.402;10.220;2023-02-16T09:06:04;102021.69;;;12.27;60.32
11395;BME280;5753;54.402;10.220;2023-02-16T09:08:30;102021.19;;;11.26;63.95
11395;BME280;5753;54.402;10.220;2023-02-16T09:11:02;102020.69;;;11.65;62.24
11395;BME280;5753;54.402;10.220;2023-02-16T09:13:28;102028.50;;;11.93;61.86
11395;BME280;5753;54.402;10.220;2023-02-16T09:15:54;102025.41;;;12.70;60.41
11395;BME280;5753;54.402;10.220;2023-02-16T09:18:20;102048.59;;;12.34;59.94
11395;BME280;5753;54.402;10.220;2023-02-16T09:20:47;102042.00;;;11.58;63.18
11395;BME280;5753;54.402;10.220;2023-02-16T09:23:13;102040.94;;;13.03;59.12
11395;BME280;5753;54.402;10.220;2023-02-16T09:25:40;102029.75;;;13.37;58.50
11395;BME280;5753;54.402;10.220;2023-02-16T09:28:06;102020.66;;;13.95;57.27
11395;BME280;5753;54.402;10.220;2023-02-16T09:30:36;102032.69;;;12.83;59.11
11395;BME280;5753;54.402;10.220;2023-02-16T09:33:03;102027.28;;;13.80;56.57
11395;BME280;5753;54.402;10.220;2023-02-16T09:35:29;102016.28;;;13.53;56.64
11395;BME280;5753;54.402;10.220;2023-02-16T09:37:55;102035.41;;;13.58;55.76
11395;BME280;5753;54.402;10.220;2023-02-16T09:40:22;102055.66;;;12.72;59.30
11395;BME280;5753;54.402;10.220;2023-02-16T09:45:24;102059.53;;;12.55;60.16
11395;BME280;5753;54.402;10.220;2023-02-16T09:47:52;102048.28;;;12.23;61.26
11395;BME280;5753;54.402;10.220;2023-02-16T09:50:28;102045.84;;;14.00;57.76
11395;BME280;5753;54.402;10.220;2023-02-16T09:52:58;102044.72;;;13.15;59.25
11395;BME280;5753;54.402;10.220;2023-02-16T09:58:58;102031.78;;;12.81;61.33
11395;BME280;5753;54.402;10.220;2023-02-16T10:09:58;102036.56;;;13.00;59.37
11395;BME280;5753;54.402;10.220;2023-02-16T10:12:31;102039.78;;;12.90;60.05
11395;BME280;5753;54.402;10.220;2023-02-16T10:15:23;102046.09;;;12.37;60.83
11395;BME280;5753;54.402;10.220;2023-02-16T10:18:13;102032.19;;;12.98;59.94
11395;BME280;5753;54.402;10.220;2023-02-16T10:20:45;102040.50;;;12.84;61.75
11395;BME280;5753;54.402;10.220;2023-02-16T10:26:22;102041.69;;;12.97;61.05
11395;BME280;5753;54.402;10.220;2023-02-16T10:28:56;102044.47;;;13.39;60.66
11395;BME280;5753;54.402;10.220;2023-02-16T10:47:57;102045.88;;;13.63;58.92
11395;BME280;5753;54.402;10.220;2023-02-16T10:53:20;102041.59;;;14.04;58.09
11395;BME280;5753;54.402;10.220;2023-02-16T10:55:49;102037.09;;;14.81;56.84
11395;BME280;5753;54.402;10.220;2023-02-16T10:58:27;102038.63;;;14.70;56.65
11395;BME280;5753;54.402;10.220;2023-02-16T11:01:13;102042.44;;;14.43;57.41
11395;BME280;5753;54.402;10.220;2023-02-16T11:03:50;102043.81;;;14.70;56.29
11395;BME280;5753;54.402;10.220;2023-02-16T11:06:25;102047.25;;;14.69;57.30
11395;BME280;5753;54.402;10.220;2023-02-16T11:09:02;102045.38;;;14.62;57.11
11395;BME280;5753;54.402;10.220;2023-02-16T11:11:39;102048.75;;;14.58;57.73
11395;BME280;5753;54.402;10.220;2023-02-16T11:14:21;102049.22;;;14.38;57.66
11395;BME280;5753;54.402;10.220;2023-02-16T11:17:01;102038.34;;;14.14;59.39
11395;BME280;5753;54.402;10.220;2023-02-16T11:19:27;102034.50;;;14.81;57.08
11395;BME280;5753;54.402;10.220;2023-02-16T11:21:57;102034.69;;;13.26;61.62
11395;BME280;5753;54.402;10.220;2023-02-16T11:24:36;102027.22;;;13.77;60.24
11395;BME280;5753;54.402;10.220;2023-02-16T11:29:37;102032.06;;;14.03;60.31
11395;BME280;5753;54.402;10.220;2023-02-16T11:32:06;102032.66;;;14.75;58.26
11395;BME280;5753;54.402;10.220;2023-02-16T11:34:46;102025.88;;;14.84;58.03
11395;BME280;5753;54.402;10.220;2023-02-16T11:37:23;102029.63;;;15.01;57.83
11395;BME280;5753;54.402;10.220;2023-02-16T11:39:56;102025.19;;;14.45;58.47
11395;BME280;5753;54.402;10.220;2023-02-16T11:42:30;102029.75;;;14.59;58.80
11395;BME280;5753;54.402;10.220;2023-02-16T11:44:59;102023.38;;;14.90;58.34
11395;BME280;5753;54.402;10.220;2023-02-16T11:47:38;102033.63;;;14.80;59.19
11395;BME280;5753;54.402;10.220;2023-02-16T11:52:47;102026.28;;;14.16;60.87
11395;BME280;5753;54.402;10.220;2023-02-16T11:55:22;102025.25;;;14.50;60.24
11395;BME280;5753;54.402;10.220;2023-02-16T11:57:50;102026.09;;;14.47;60.62
11395;BME280;5753;54.402;10.220;2023-02-16T12:00:22;102035.78;;;15.07;59.22
11395;BME280;5753;54.402;10.220;2023-02-16T12:03:22;102028.03;;;14.17;61.34
11395;BME280;5753;54.402;10.220;2023-02-16T12:06:47;102030.00;;;13.86;62.70
11395;BME280;5753;54.402;10.220;2023-02-16T12:40:08;102008.97;;;15.08;62.63
11395;BME280;5753;54.402;10.220;2023-02-16T12:42:42;102017.41;;;14.45;63.80
11395;BME280;5753;54.402;10.220;2023-02-16T12:45:17;102011.25;;;14.42;63.08
11395;BME280;5753;54.402;10.220;2023-02-16T12:48:51;102013.00;;;14.90;62.89
11395;BME280;5753;54.402;10.220;2023-02-16T12:50:45;102007.31;;;14.18;65.50
11395;BME280;5753;54.402;10.220;2023-02-16T12:56:08;102001.22;;;15.10;61.77
11395;BME280;5753;54.402;10.220;2023-02-16T12:58:41;102004.03;;;14.71;62.92
11395;BME280;5753;54.402;10.220;2023-02-16T13:01:38;102002.31;;;15.82;59.78
11395;BME280;5753;54.402;10.220;2023-02-16T13:07:25;101990.00;;;15.12;61.88
11395;BME280;5753;54.402;10.220;2023-02-16T13:10:18;101987.78;;;14.81;62.96
11395;BME280;5753;54.402;10.220;2023-02-16T13:13:03;101989.53;;;15.38;61.22
11395;BME280;5753;54.402;10.220;2023-02-16T13:20:40;101967.84;;;14.78;62.37
11395;BME280;5753;54.402;10.220;2023-02-16T13:28:30;101965.00;;;15.18;62.27
11395;BME280;5753;54.402;10.220;2023-02-16T13:34:20;101973.47;;;15.07;63.10
11395;BME280;5753;54.402;10.220;2023-02-16T13:45:33;101970.28;;;14.69;64.84
11395;BME280;5753;54.402;10.220;2023-02-16T13:48:20;101970.00;;;14.54;65.63
11395;BME280;5753;54.402;10.220;2023-02-16T13:50:55;101972.28;;;14.87;63.64
11395;BME280;5753;54.402;10.220;2023-02-16T13:53:22;101972.13;;;14.30;65.05
11395;BME280;5753;54.402;10.220;2023-02-16T13:55:51;101967.03;;;14.83;63.94
11395;BME280;5753;54.402;10.220;2023-02-16T13:58:35;101972.25;;;14.84;63.60
11395;BME280;5753;54.402;10.220;2023-02-16T14:01:35;101971.50;;;14.91;63.95
11395;BME280;5753;54.402;10.220;2023-02-16T14:04:12;101975.38;;;15.18;62.38
11395;BME280;5753;54.402;10.220;2023-02-16T14:06:40;101970.09;;;14.15;68.58
11395;BME280;5753;54.402;10.220;2023-02-16T14:22:18;101962.81;;;15.47;62.89
11395;BME280;5753;54.402;10.220;2023-02-16T14:24:57;101966.41;;;14.99;63.85
11395;BME280;5753;54.402;10.220;2023-02-16T14:27:56;101965.41;;;14.89;67.04
11395;BME280;5753;54.402;10.220;2023-02-16T14:38:33;101973.38;;;14.50;68.92
11395;BME280;5753;54.402;10.220;2023-02-16T14:41:05;101978.78;;;14.62;69.02
11395;BME280;5753;54.402;10.220;2023-02-16T14:43:34;101983.13;;;13.37;73.38
11395;BME280;5753;54.402;10.220;2023-02-16T14:49:10;101970.91;;;15.66;64.68
11395;BME280;5753;54.402;10.220;2023-02-16T14:57:34;101962.66;;;14.32;68.36
11395;BME280;5753;54.402;10.220;2023-02-16T15:00:17;101960.84;;;14.28;70.63
11395;BME280;5753;54.402;10.220;2023-02-16T15:03:04;101956.28;;;15.14;67.36
11395;BME280;5753;54.402;10.220;2023-02-16T15:05:39;101960.53;;;15.10;67.59
11395;BME280;5753;54.402;10.220;2023-02-16T15:08:29;101961.81;;;14.81;69.23
11395;BME280;5753;54.402;10.220;2023-02-16T15:11:12;101962.13;;;15.60;66.16
11395;BME280;5753;54.402;10.220;2023-02-16T15:13:39;101951.84;;;15.64;65.40
11395;BME280;5753;54.402;10.220;2023-02-16T15:16:06;101953.16;;;15.38;65.65
11395;BME280;5753;54.402;10.220;2023-02-16T15:18:44;101957.81;;;15.01;67.67
11395;BME280;5753;54.402;10.220;2023-02-16T15:21:22;101958.56;;;14.43;69.80
11395;BME280;5753;54.402;10.220;2023-02-16T15:23:54;101951.50;;;14.37;68.39
11395;BME280;5753;54.402;10.220;2023-02-16T15:26:24;101955.88;;;14.88;68.31
11395;BME280;5753;54.402;10.220;2023-02-16T15:28:54;101952.69;;;15.07;67.11
11395;BME280;5753;54.402;10.220;2023-02-16T15:31:32;101959.34;;;15.48;66.14
11395;BME280;5753;54.402;10.220;2023-02-16T15:34:04;101949.66;;;15.34;65.24
11395;BME280;5753;54.402;10.220;2023-02-16T15:36:43;101943.13;;;16.40;62.39
11395;BME280;5753;54.402;10.220;2023-02-16T15:41:54;101947.97;;;14.80;67.37
11395;BME280;5753;54.402;10.220;2023-02-16T15:44:36;101951.91;;;14.59;69.81
11395;BME280;5753;54.402;10.220;2023-02-16T15:47:21;101955.00;;;15.45;65.45
11395;BME280;5753;54.402;10.220;2023-02-16T15:49:48;101955.41;;;15.14;66.22
11395;BME280;5753;54.402;10.220;2023-02-16T15:52:19;101949.22;;;15.05;66.87
11395;BME280;5753;54.402;10.220;2023-02-16T15:54:48;101955.44;;;14.64;68.60
11395;BME280;5753;54.402;10.220;2023-02-16T15:57:26;101939.41;;;14.88;68.11
11395;BME280;5753;54.402;10.220;2023-02-16T16:00:01;101944.81;;;14.48;70.74
11395;BME280;5753;54.402;10.220;2023-02-16T16:02:38;101944.31;;;14.68;70.03